Terminal Aerodrome Forecast
Issued by NWS Bismarck, ND

Home | Current Version | Previous Version | Text Only | Print | Product List | Glossary Off
Versions: 1 2 3 4 5 6 7 8 9 10 11 12 13 14 15 16 17 18 19 20 21 22

000
FTUS43 KBIS 281100
TAFBIS
TAF
KBIS 281124Z 2812/2912 11004KT P6SM VCFG SCT025 OVC150
     FM281400 18005KT P6SM BKN025
     FM281700 20007KT P6SM SCT025 SCT050
     FM282300 18005KT P6SM SCT050 SCT100
     FM290300 15004KT P6SM SCT050
     FM291000 33005KT P6SM BKN080=

USA.gov is the U.S. government's official web portal to all federal, state and local government web resources and services.